sensor_id;sensor_type;location;lat;lon;timestamp;temperature;humidity
16384;DHT22;8301;51.440;6.610;2022-11-20T00:01:16;-1.60;99.90
16384;DHT22;8301;51.440;6.610;2022-11-20T00:03:41;-1.60;99.90
16384;DHT22;8301;51.440;6.610;2022-11-20T00:06:11;-1.70;99.90
16384;DHT22;8301;51.440;6.610;2022-11-20T00:08:39;-1.80;99.90
16384;DHT22;8301;51.440;6.610;2022-11-20T00:11:12;-1.90;99.90
16384;DHT22;8301;51.440;6.610;2022-11-20T00:13:40;-2.00;99.90
16384;DHT22;8301;51.440;6.610;2022-11-20T00:16:10;-2.20;99.90
16384;DHT22;8301;51.440;6.610;2022-11-20T00:18:38;-2.20;99.90
16384;DHT22;8301;51.440;6.610;2022-11-20T00:21:10;-2.20;99.90
16384;DHT22;8301;51.440;6.610;2022-11-20T00:23:36;-2.20;99.90
16384;DHT22;8301;51.440;6.610;2022-11-20T00:26:07;-2.20;99.90
16384;DHT22;8301;51.440;6.610;2022-11-20T00:28:35;-2.20;99.90
16384;DHT22;8301;51.440;6.610;2022-11-20T00:31:05;-2.10;99.90
16384;DHT22;8301;51.440;6.610;2022-11-20T00:33:33;-2.10;99.90
16384;DHT22;8301;51.440;6.610;2022-11-20T00:36:06;-2.10;99.90
16384;DHT22;8301;51.440;6.610;2022-11-20T00:38:35;-2.20;99.90
16384;DHT22;8301;51.440;6.610;2022-11-20T00:41:05;-2.20;99.90
16384;DHT22;8301;51.440;6.610;2022-11-20T00:43:33;-2.20;99.90
16384;DHT22;8301;51.440;6.610;2022-11-20T00:46:06;-2.30;99.90
16384;DHT22;8301;51.440;6.610;2022-11-20T00:48:33;-2.10;99.90
16384;DHT22;8301;51.440;6.610;2022-11-20T00:51:00;-2.10;99.90
16384;DHT22;8301;51.440;6.610;2022-11-20T00:53:28;-2.10;99.90
16384;DHT22;8301;51.440;6.610;2022-11-20T00:56:06;-2.10;99.90
16384;DHT22;8301;51.440;6.610;2022-11-20T00:58:31;-2.00;99.90
16384;DHT22;8301;51.440;6.610;2022-11-20T01:01:06;-2.10;99.90
16384;DHT22;8301;51.440;6.610;2022-11-20T01:03:36;-2.10;99.90
16384;DHT22;8301;51.440;6.610;2022-11-20T01:06:10;-2.10;99.90
16384;DHT22;8301;51.440;6.610;2022-11-20T01:08:35;-2.00;99.90
16384;DHT22;8301;51.440;6.610;2022-11-20T01:11:05;-2.10;99.90
16384;DHT22;8301;51.440;6.610;2022-11-20T01:13:34;-2.10;99.90
16384;DHT22;8301;51.440;6.610;2022-11-20T01:16:11;-2.10;99.90
16384;DHT22;8301;51.440;6.610;2022-11-20T01:18:40;-2.00;99.90
16384;DHT22;8301;51.440;6.610;2022-11-20T01:21:15;-2.10;99.90
16384;DHT22;8301;51.440;6.610;2022-11-20T01:23:40;-2.10;99.90
16384;DHT22;8301;51.440;6.610;2022-11-20T01:26:11;-2.20;99.90
16384;DHT22;8301;51.440;6.610;2022-11-20T01:28:40;-2.20;99.90
16384;DHT22;8301;51.440;6.610;2022-11-20T01:31:15;-2.20;99.90
16384;DHT22;8301;51.440;6.610;2022-11-20T01:33:44;-2.20;99.90
16384;DHT22;8301;51.440;6.610;2022-11-20T01:36:13;-2.10;99.90
16384;DHT22;8301;51.440;6.610;2022-11-20T01:38:41;-2.10;99.90
16384;DHT22;8301;51.440;6.610;2022-11-20T01:41:10;-2.00;99.90
16384;DHT22;8301;51.440;6.610;2022-11-20T01:43:39;-2.00;99.90
16384;DHT22;8301;51.440;6.610;2022-11-20T01:46:15;-1.90;99.90
16384;DHT22;8301;51.440;6.610;2022-11-20T01:51:17;-1.80;99.90
16384;DHT22;8301;51.440;6.610;2022-11-20T01:53:44;-1.80;99.90
16384;DHT22;8301;51.440;6.610;2022-11-20T01:56:14;-1.70;99.90
16384;DHT22;8301;51.440;6.610;2022-11-20T01:58:46;-1.60;99.90
16384;DHT22;8301;51.440;6.610;2022-11-20T02:01:15;-1.60;99.90
16384;DHT22;8301;51.440;6.610;2022-11-20T02:03:44;-1.60;99.90
16384;DHT22;8301;51.440;6.610;2022-11-20T02:06:19;-1.60;99.90
16384;DHT22;8301;51.440;6.610;2022-11-20T02:08:48;-1.50;99.90
16384;DHT22;8301;51.440;6.610;2022-11-20T02:11:15;-1.40;99.90
16384;DHT22;8301;51.440;6.610;2022-11-20T02:13:43;-1.40;99.90
16384;DHT22;8301;51.440;6.610;2022-11-20T02:16:22;-1.40;99.90
16384;DHT22;8301;51.440;6.610;2022-11-20T02:18:51;-1.40;99.90
16384;DHT22;8301;51.440;6.610;2022-11-20T02:21:43;-1.40;99.90
16384;DHT22;8301;51.440;6.610;2022-11-20T02:24:14;-1.40;99.90
16384;DHT22;8301;51.440;6.610;2022-11-20T02:26:57;-1.30;99.90
16384;DHT22;8301;51.440;6.610;2022-11-20T02:29:49;-1.30;99.90
16384;DHT22;8301;51.440;6.610;2022-11-20T02:31:56;-1.40;99.90
16384;DHT22;8301;51.440;6.610;2022-11-20T02:34:25;-1.40;99.90
16384;DHT22;8301;51.440;6.610;2022-11-20T02:36:53;-1.30;99.90
16384;DHT22;8301;51.440;6.610;2022-11-20T02:39:21;-1.20;99.90
16384;DHT22;8301;51.440;6.610;2022-11-20T02:41:53;-1.20;99.90
16384;DHT22;8301;51.440;6.610;2022-11-20T02:44:21;-1.20;99.90
16384;DHT22;8301;51.440;6.610;2022-11-20T02:46:48;-1.20;99.90
16384;DHT22;8301;51.440;6.610;2022-11-20T02:49:17;-1.20;99.90
16384;DHT22;8301;51.440;6.610;2022-11-20T02:51:44;-1.10;99.90
16384;DHT22;8301;51.440;6.610;2022-11-20T02:54:12;-1.10;99.90
16384;DHT22;8301;51.440;6.610;2022-11-20T02:56:40;-1.10;99.90
16384;DHT22;8301;51.440;6.610;2022-11-20T02:59:08;-1.00;99.90
16384;DHT22;8301;51.440;6.610;2022-11-20T03:01:35;-1.00;99.90
16384;DHT22;8301;51.440;6.610;2022-11-20T03:04:03;-1.00;99.90
16384;DHT22;8301;51.440;6.610;2022-11-20T03:06:31;-0.90;99.90
16384;DHT22;8301;51.440;6.610;2022-11-20T03:08:59;-0.90;99.90
16384;DHT22;8301;51.440;6.610;2022-11-20T03:11:26;-0.90;99.90
16384;DHT22;8301;51.440;6.610;2022-11-20T03:13:54;-1.00;99.90
16384;DHT22;8301;51.440;6.610;2022-11-20T03:16:22;-0.90;99.90
16384;DHT22;8301;51.440;6.610;2022-11-20T03:18:52;-0.90;99.90
16384;DHT22;8301;51.440;6.610;2022-11-20T03:21:20;-0.90;99.90
16384;DHT22;8301;51.440;6.610;2022-11-20T03:23:47;-1.00;99.90
16384;DHT22;8301;51.440;6.610;2022-11-20T03:26:20;-1.00;99.90
16384;DHT22;8301;51.440;6.610;2022-11-20T03:28:59;-1.00;99.90
16384;DHT22;8301;51.440;6.610;2022-11-20T03:31:30;-1.00;99.90
16384;DHT22;8301;51.440;6.610;2022-11-20T03:33:58;-0.90;99.90
16384;DHT22;8301;51.440;6.610;2022-11-20T03:36:27;-0.90;99.90
16384;DHT22;8301;51.440;6.610;2022-11-20T03:38:56;-0.90;99.90
16384;DHT22;8301;51.440;6.610;2022-11-20T03:41:26;-0.90;99.90
16384;DHT22;8301;51.440;6.610;2022-11-20T03:43:59;-0.90;99.90
16384;DHT22;8301;51.440;6.610;2022-11-20T03:46:27;-0.90;99.90
16384;DHT22;8301;51.440;6.610;2022-11-20T03:48:56;-0.80;99.90
16384;DHT22;8301;51.440;6.610;2022-11-20T03:51:31;-0.80;99.90
16384;DHT22;8301;51.440;6.610;2022-11-20T03:53:58;-0.80;99.90
16384;DHT22;8301;51.440;6.610;2022-11-20T03:56:33;-0.80;99.90
16384;DHT22;8301;51.440;6.610;2022-11-20T03:58:56;-0.80;99.90
16384;DHT22;8301;51.440;6.610;2022-11-20T04:01:30;-0.90;99.90
16384;DHT22;8301;51.440;6.610;2022-11-20T04:03:58;-0.90;99.90
16384;DHT22;8301;51.440;6.610;2022-11-20T04:06:33;-0.90;99.90
16384;DHT22;8301;51.440;6.610;2022-11-20T04:08:57;-0.80;99.90
16384;DHT22;8301;51.440;6.610;2022-11-20T04:11:30;-0.70;99.90
16384;DHT22;8301;51.440;6.610;2022-11-20T04:14:00;-0.80;99.90
16384;DHT22;8301;51.440;6.610;2022-11-20T04:16:33;-0.80;99.90
16384;DHT22;8301;51.440;6.610;2022-11-20T04:19:03;-0.70;99.90
16384;DHT22;8301;51.440;6.610;2022-11-20T04:21:31;-0.70;99.90
16384;DHT22;8301;51.440;6.610;2022-11-20T04:23:59;-0.80;99.90
16384;DHT22;8301;51.440;6.610;2022-11-20T04:26:27;-0.70;99.90
16384;DHT22;8301;51.440;6.610;2022-11-20T04:28:55;-0.60;99.90
16384;DHT22;8301;51.440;6.610;2022-11-20T04:31:26;-0.60;99.90
16384;DHT22;8301;51.440;6.610;2022-11-20T04:33:54;-0.60;99.90
16384;DHT22;8301;51.440;6.610;2022-11-20T04:36:26;-0.60;99.90
16384;DHT22;8301;51.440;6.610;2022-11-20T04:38:55;-0.70;99.90
16384;DHT22;8301;51.440;6.610;2022-11-20T04:41:26;-0.80;99.90
16384;DHT22;8301;51.440;6.610;2022-11-20T04:43:57;-0.90;99.90
16384;DHT22;8301;51.440;6.610;2022-11-20T04:46:27;-1.00;99.90
16384;DHT22;8301;51.440;6.610;2022-11-20T04:48:55;-0.90;99.90
16384;DHT22;8301;51.440;6.610;2022-11-20T04:51:22;-0.90;99.90
16384;DHT22;8301;51.440;6.610;2022-11-20T04:53:50;-0.90;99.90
16384;DHT22;8301;51.440;6.610;2022-11-20T04:56:18;-0.80;99.90
16384;DHT22;8301;51.440;6.610;2022-11-20T04:58:45;-0.70;99.90
16384;DHT22;8301;51.440;6.610;2022-11-20T05:01:21;-0.80;99.90
16384;DHT22;8301;51.440;6.610;2022-11-20T05:03:49;-0.70;99.90
16384;DHT22;8301;51.440;6.610;2022-11-20T05:06:19;-0.80;99.90
16384;DHT22;8301;51.440;6.610;2022-11-20T05:08:47;-0.80;99.90
16384;DHT22;8301;51.440;6.610;2022-11-20T05:11:17;-0.80;99.90
16384;DHT22;8301;51.440;6.610;2022-11-20T05:13:48;-0.80;99.90
16384;DHT22;8301;51.440;6.610;2022-11-20T05:16:18;-0.80;99.90
16384;DHT22;8301;51.440;6.610;2022-11-20T05:18:46;-0.80;99.90
16384;DHT22;8301;51.440;6.610;2022-11-20T05:21:15;-0.80;99.90
16384;DHT22;8301;51.440;6.610;2022-11-20T05:23:44;-0.80;99.90
16384;DHT22;8301;51.440;6.610;2022-11-20T05:26:17;-0.60;99.90
16384;DHT22;8301;51.440;6.610;2022-11-20T05:28:45;-0.60;99.90
16384;DHT22;8301;51.440;6.610;2022-11-20T05:31:15;-0.70;99.90
16384;DHT22;8301;51.440;6.610;2022-11-20T05:33:44;-0.60;99.90
16384;DHT22;8301;51.440;6.610;2022-11-20T05:36:13;-0.40;99.90
16384;DHT22;8301;51.440;6.610;2022-11-20T05:38:42;-0.50;99.90
16384;DHT22;8301;51.440;6.610;2022-11-20T05:41:14;-0.40;99.90
16384;DHT22;8301;51.440;6.610;2022-11-20T05:43:44;-0.30;99.90
16384;DHT22;8301;51.440;6.610;2022-11-20T05:46:14;-0.30;99.90
16384;DHT22;8301;51.440;6.610;2022-11-20T05:48:43;-0.20;99.90
16384;DHT22;8301;51.440;6.610;2022-11-20T05:51:13;-0.30;99.90
16384;DHT22;8301;51.440;6.610;2022-11-20T05:53:41;-0.20;99.90
16384;DHT22;8301;51.440;6.610;2022-11-20T05:56:17;-0.20;99.90
16384;DHT22;8301;51.440;6.610;2022-11-20T05:58:46;-0.20;99.90
16384;DHT22;8301;51.440;6.610;2022-11-20T06:01:23;-0.10;99.90
16384;DHT22;8301;51.440;6.610;2022-11-20T06:03:52;-0.10;99.90
16384;DHT22;8301;51.440;6.610;2022-11-20T06:06:20;-0.10;99.90
16384;DHT22;8301;51.440;6.610;2022-11-20T06:08:48;0.00;99.90
16384;DHT22;8301;51.440;6.610;2022-11-20T06:11:16;0.00;99.90
16384;DHT22;8301;51.440;6.610;2022-11-20T06:13:44;-0.10;99.90
16384;DHT22;8301;51.440;6.610;2022-11-20T06:16:15;0.00;99.90
16384;DHT22;8301;51.440;6.610;2022-11-20T06:18:42;-0.10;99.90
16384;DHT22;8301;51.440;6.610;2022-11-20T06:21:18;-0.10;99.90
16384;DHT22;8301;51.440;6.610;2022-11-20T06:23:46;0.00;99.90
16384;DHT22;8301;51.440;6.610;2022-11-20T06:26:22;0.00;99.90
16384;DHT22;8301;51.440;6.610;2022-11-20T06:28:51;0.00;99.90
16384;DHT22;8301;51.440;6.610;2022-11-20T06:31:22;-0.10;99.90
16384;DHT22;8301;51.440;6.610;2022-11-20T06:33:51;0.00;99.90
16384;DHT22;8301;51.440;6.610;2022-11-20T06:36:21;-0.10;99.90
16384;DHT22;8301;51.440;6.610;2022-11-20T06:38:50;-0.10;99.90
16384;DHT22;8301;51.440;6.610;2022-11-20T06:41:20;0.00;99.90
16384;DHT22;8301;51.440;6.610;2022-11-20T06:43:49;0.10;99.90
16384;DHT22;8301;51.440;6.610;2022-11-20T06:46:18;0.10;99.90
16384;DHT22;8301;51.440;6.610;2022-11-20T06:48:47;0.20;99.90
16384;DHT22;8301;51.440;6.610;2022-11-20T06:51:14;0.20;99.90
16384;DHT22;8301;51.440;6.610;2022-11-20T06:53:42;0.10;99.90
16384;DHT22;8301;51.440;6.610;2022-11-20T06:56:10;0.20;99.90
16384;DHT22;8301;51.440;6.610;2022-11-20T06:58:37;0.20;99.90
16384;DHT22;8301;51.440;6.610;2022-11-20T07:01:08;0.20;99.90
16384;DHT22;8301;51.440;6.610;2022-11-20T07:03:37;0.10;99.90
16384;DHT22;8301;51.440;6.610;2022-11-20T07:06:05;0.00;99.90
16384;DHT22;8301;51.440;6.610;2022-11-20T07:08:34;0.10;99.90
16384;DHT22;8301;51.440;6.610;2022-11-20T07:11:04;0.10;99.90
16384;DHT22;8301;51.440;6.610;2022-11-20T07:13:32;0.00;99.90
16384;DHT22;8301;51.440;6.610;2022-11-20T07:16:05;0.00;99.90
16384;DHT22;8301;51.440;6.610;2022-11-20T07:18:32;0.10;99.90
16384;DHT22;8301;51.440;6.610;2022-11-20T07:21:04;0.00;99.90
16384;DHT22;8301;51.440;6.610;2022-11-20T07:23:34;0.10;99.90
16384;DHT22;8301;51.440;6.610;2022-11-20T07:26:09;0.20;99.90
16384;DHT22;8301;51.440;6.610;2022-11-20T07:28:45;0.10;99.90
16384;DHT22;8301;51.440;6.610;2022-11-20T07:31:12;0.20;99.90
16384;DHT22;8301;51.440;6.610;2022-11-20T07:33:40;0.10;99.90
16384;DHT22;8301;51.440;6.610;2022-11-20T07:36:07;0.20;99.90
16384;DHT22;8301;51.440;6.610;2022-11-20T07:38:36;0.20;99.90
16384;DHT22;8301;51.440;6.610;2022-11-20T07:41:04;0.30;99.90
16384;DHT22;8301;51.440;6.610;2022-11-20T07:43:31;0.40;99.90
16384;DHT22;8301;51.440;6.610;2022-11-20T07:45:59;0.40;99.90
16384;DHT22;8301;51.440;6.610;2022-11-20T07:48:28;0.40;99.90
16384;DHT22;8301;51.440;6.610;2022-11-20T07:50:56;0.40;99.90
16384;DHT22;8301;51.440;6.610;2022-11-20T07:53:24;0.40;99.90
16384;DHT22;8301;51.440;6.610;2022-11-20T07:55:52;0.50;99.90
16384;DHT22;8301;51.440;6.610;2022-11-20T07:58:20;0.50;99.90
16384;DHT22;8301;51.440;6.610;2022-11-20T08:00:48;0.50;99.90
16384;DHT22;8301;51.440;6.610;2022-11-20T08:03:15;0.60;99.90
16384;DHT22;8301;51.440;6.610;2022-11-20T08:05:43;0.70;99.90
16384;DHT22;8301;51.440;6.610;2022-11-20T08:08:10;0.40;99.90
16384;DHT22;8301;51.440;6.610;2022-11-20T08:10:38;0.60;99.90
16384;DHT22;8301;51.440;6.610;2022-11-20T08:13:05;0.50;99.90
16384;DHT22;8301;51.440;6.610;2022-11-20T08:15:51;0.70;99.90
16384;DHT22;8301;51.440;6.610;2022-11-20T08:18:19;0.80;99.90
16384;DHT22;8301;51.440;6.610;2022-11-20T08:20:46;0.80;99.90
16384;DHT22;8301;51.440;6.610;2022-11-20T08:23:14;0.90;99.90
16384;DHT22;8301;51.440;6.610;2022-11-20T08:25:41;0.80;99.90
16384;DHT22;8301;51.440;6.610;2022-11-20T08:28:09;0.90;99.90
16384;DHT22;8301;51.440;6.610;2022-11-20T08:30:38;1.00;99.90
16384;DHT22;8301;51.440;6.610;2022-11-20T08:33:07;1.10;99.90
16384;DHT22;8301;51.440;6.610;2022-11-20T08:35:36;1.20;99.90
16384;DHT22;8301;51.440;6.610;2022-11-20T08:38:05;1.70;99.90
16384;DHT22;8301;51.440;6.610;2022-11-20T08:40:36;1.80;99.90
16384;DHT22;8301;51.440;6.610;2022-11-20T08:43:03;2.10;99.90
16384;DHT22;8301;51.440;6.610;2022-11-20T08:45:32;2.20;99.90
16384;DHT22;8301;51.440;6.610;2022-11-20T08:48:05;2.30;99.90
16384;DHT22;8301;51.440;6.610;2022-11-20T08:50:33;2.20;99.90
16384;DHT22;8301;51.440;6.610;2022-11-20T08:53:05;2.20;99.90
16384;DHT22;8301;51.440;6.610;2022-11-20T08:55:32;2.20;99.90
16384;DHT22;8301;51.440;6.610;2022-11-20T08:58:06;2.20;99.90
16384;DHT22;8301;51.440;6.610;2022-11-20T09:00:34;2.20;99.90
16384;DHT22;8301;51.440;6.610;2022-11-20T09:03:01;2.30;99.90
16384;DHT22;8301;51.440;6.610;2022-11-20T09:05:29;2.40;99.90
16384;DHT22;8301;51.440;6.610;2022-11-20T09:07:58;2.60;99.90
16384;DHT22;8301;51.440;6.610;2022-11-20T09:10:29;2.80;99.90
16384;DHT22;8301;51.440;6.610;2022-11-20T09:12:57;2.50;99.90
16384;DHT22;8301;51.440;6.610;2022-11-20T09:15:26;2.50;99.90
16384;DHT22;8301;51.440;6.610;2022-11-20T09:17:55;2.60;99.90
16384;DHT22;8301;51.440;6.610;2022-11-20T09:20:23;2.60;99.90
16384;DHT22;8301;51.440;6.610;2022-11-20T09:22:50;2.70;99.90
16384;DHT22;8301;51.440;6.610;2022-11-20T09:25:18;2.80;99.90
16384;DHT22;8301;51.440;6.610;2022-11-20T09:27:46;2.70;99.90
16384;DHT22;8301;51.440;6.610;2022-11-20T09:30:14;2.70;99.90
16384;DHT22;8301;51.440;6.610;2022-11-20T09:32:43;2.60;99.90
16384;DHT22;8301;51.440;6.610;2022-11-20T09:35:11;2.60;99.90
16384;DHT22;8301;51.440;6.610;2022-11-20T09:37:38;2.70;99.90
16384;DHT22;8301;51.440;6.610;2022-11-20T09:40:06;2.70;99.90
16384;DHT22;8301;51.440;6.610;2022-11-20T09:54:06;2.90;99.90
16384;DHT22;8301;51.440;6.610;2022-11-20T09:56:34;2.90;99.90
16384;DHT22;8301;51.440;6.610;2022-11-20T09:59:04;3.00;99.90
16384;DHT22;8301;51.440;6.610;2022-11-20T10:01:35;3.00;99.90
16384;DHT22;8301;51.440;6.610;2022-11-20T10:04:18;3.10;99.90
16384;DHT22;8301;51.440;6.610;2022-11-20T10:07:06;3.20;99.90
16384;DHT22;8301;51.440;6.610;2022-11-20T10:09:39;3.30;99.90
16384;DHT22;8301;51.440;6.610;2022-11-20T10:12:27;3.40;99.90
16384;DHT22;8301;51.440;6.610;2022-11-20T10:17:55;3.50;99.90
16384;DHT22;8301;51.440;6.610;2022-11-20T10:20:28;3.60;99.90
16384;DHT22;8301;51.440;6.610;2022-11-20T10:26:03;3.70;99.90
16384;DHT22;8301;51.440;6.610;2022-11-20T10:28:56;3.70;99.90
16384;DHT22;8301;51.440;6.610;2022-11-20T10:31:37;3.80;99.90
16384;DHT22;8301;51.440;6.610;2022-11-20T10:34:19;3.80;99.90
16384;DHT22;8301;51.440;6.610;2022-11-20T10:36:51;4.00;99.90
16384;DHT22;8301;51.440;6.610;2022-11-20T10:39:35;4.10;99.90
16384;DHT22;8301;51.440;6.610;2022-11-20T10:41:54;4.00;99.90
16384;DHT22;8301;51.440;6.610;2022-11-20T10:44:28;4.10;99.90
16384;DHT22;8301;51.440;6.610;2022-11-20T10:47:18;4.00;99.90
16384;DHT22;8301;51.440;6.610;2022-11-20T10:49:53;4.00;99.90
16384;DHT22;8301;51.440;6.610;2022-11-20T10:58:07;4.10;99.90
16384;DHT22;8301;51.440;6.610;2022-11-20T11:00:33;4.20;99.90
16384;DHT22;8301;51.440;6.610;2022-11-20T11:03:02;4.10;99.90
16384;DHT22;8301;51.440;6.610;2022-11-20T11:08:41;4.20;99.90
16384;DHT22;8301;51.440;6.610;2022-11-20T11:11:26;4.20;99.90
16384;DHT22;8301;51.440;6.610;2022-11-20T11:14:12;4.20;99.90
16384;DHT22;8301;51.440;6.610;2022-11-20T11:16:49;4.30;99.90
16384;DHT22;8301;51.440;6.610;2022-11-20T11:19:17;4.20;99.90
16384;DHT22;8301;51.440;6.610;2022-11-20T11:21:53;4.30;99.90
16384;DHT22;8301;51.440;6.610;2022-11-20T11:24:23;4.30;99.90
16384;DHT22;8301;51.440;6.610;2022-11-20T11:27:03;4.40;99.90
16384;DHT22;8301;51.440;6.610;2022-11-20T11:29:22;4.40;99.90
16384;DHT22;8301;51.440;6.610;2022-11-20T11:32:02;4.40;99.90
16384;DHT22;8301;51.440;6.610;2022-11-20T11:34:20;4.40;99.90
16384;DHT22;8301;51.440;6.610;2022-11-20T11:36:56;4.50;99.90
16384;DHT22;8301;51.440;6.610;2022-11-20T11:39:21;4.40;99.90
16384;DHT22;8301;51.440;6.610;2022-11-20T11:41:50;4.40;99.90
16384;DHT22;8301;51.440;6.610;2022-11-20T11:44:27;4.50;99.90
16384;DHT22;8301;51.440;6.610;2022-11-20T11:47:24;4.40;99.90
16384;DHT22;8301;51.440;6.610;2022-11-20T11:55:51;4.50;99.90
16384;DHT22;8301;51.440;6.610;2022-11-20T12:03:42;4.60;99.90
16384;DHT22;8301;51.440;6.610;2022-11-20T12:06:15;4.70;99.90
16384;DHT22;8301;51.440;6.610;2022-11-20T12:08:59;4.60;99.90
16384;DHT22;8301;51.440;6.610;2022-11-20T12:12:04;4.60;99.90
16384;DHT22;8301;51.440;6.610;2022-11-20T12:14:17;4.60;99.90
16384;DHT22;8301;51.440;6.610;2022-11-20T12:16:42;4.60;99.90
16384;DHT22;8301;51.440;6.610;2022-11-20T12:19:12;4.70;99.90
16384;DHT22;8301;51.440;6.610;2022-11-20T12:21:59;4.70;99.90
16384;DHT22;8301;51.440;6.610;2022-11-20T12:30:21;4.70;99.90
16384;DHT22;8301;51.440;6.610;2022-11-20T12:33:09;4.70;99.90
16384;DHT22;8301;51.440;6.610;2022-11-20T12:43:45;4.80;99.90
16384;DHT22;8301;51.440;6.610;2022-11-20T12:46:45;4.80;99.90
16384;DHT22;8301;51.440;6.610;2022-11-20T12:55:42;4.70;99.90
16384;DHT22;8301;51.440;6.610;2022-11-20T12:57:58;4.70;99.90
16384;DHT22;8301;51.440;6.610;2022-11-20T13:00:25;4.80;99.90
16384;DHT22;8301;51.440;6.610;2022-11-20T13:05:59;4.80;99.90
16384;DHT22;8301;51.440;6.610;2022-11-20T13:08:39;4.70;99.90
16384;DHT22;8301;51.440;6.610;2022-11-20T13:11:17;4.70;99.90
16384;DHT22;8301;51.440;6.610;2022-11-20T13:14:07;4.70;99.90
16384;DHT22;8301;51.440;6.610;2022-11-20T13:16:59;4.70;99.90
16384;DHT22;8301;51.440;6.610;2022-11-20T13:19:27;4.60;99.90
16384;DHT22;8301;51.440;6.610;2022-11-20T13:21:56;4.60;99.90
16384;DHT22;8301;51.440;6.610;2022-11-20T13:24:26;4.60;99.90
16384;DHT22;8301;51.440;6.610;2022-11-20T13:27:04;4.60;99.90
16384;DHT22;8301;51.440;6.610;2022-11-20T13:29:33;4.50;99.90
16384;DHT22;8301;51.440;6.610;2022-11-20T13:32:06;4.60;99.90
16384;DHT22;8301;51.440;6.610;2022-11-20T13:34:34;4.60;99.90
16384;DHT22;8301;51.440;6.610;2022-11-20T13:37:02;4.60;99.90
16384;DHT22;8301;51.440;6.610;2022-11-20T13:39:36;4.60;99.90
16384;DHT22;8301;51.440;6.610;2022-11-20T13:44:51;4.60;99.90
16384;DHT22;8301;51.440;6.610;2022-11-20T13:47:25;4.60;99.90
16384;DHT22;8301;51.440;6.610;2022-11-20T13:49:58;4.50;99.90
16384;DHT22;8301;51.440;6.610;2022-11-20T13:55:07;4.60;99.90
16384;DHT22;8301;51.440;6.610;2022-11-20T13:57:53;4.50;99.90
16384;DHT22;8301;51.440;6.610;2022-11-20T14:00:21;4.50;99.90
16384;DHT22;8301;51.440;6.610;2022-11-20T14:05:31;4.40;99.90
16384;DHT22;8301;51.440;6.610;2022-11-20T14:07:59;4.40;99.90
16384;DHT22;8301;51.440;6.610;2022-11-20T14:10:30;4.40;99.90
16384;DHT22;8301;51.440;6.610;2022-11-20T14:12:57;4.40;99.90
16384;DHT22;8301;51.440;6.610;2022-11-20T14:15:30;4.40;99.90
16384;DHT22;8301;51.440;6.610;2022-11-20T14:17:59;4.40;99.90
16384;DHT22;8301;51.440;6.610;2022-11-20T14:20:29;4.40;99.90
16384;DHT22;8301;51.440;6.610;2022-11-20T14:22:57;4.30;99.90
16384;DHT22;8301;51.440;6.610;2022-11-20T14:25:26;4.40;99.90
16384;DHT22;8301;51.440;6.610;2022-11-20T14:27:56;4.40;99.90
16384;DHT22;8301;51.440;6.610;2022-11-20T14:30:27;4.40;99.90
16384;DHT22;8301;51.440;6.610;2022-11-20T14:33:00;4.40;99.90
16384;DHT22;8301;51.440;6.610;2022-11-20T14:35:31;4.40;99.90
16384;DHT22;8301;51.440;6.610;2022-11-20T14:38:00;4.40;99.90
16384;DHT22;8301;51.440;6.610;2022-11-20T14:40:33;4.40;99.90
16384;DHT22;8301;51.440;6.610;2022-11-20T14:45:46;4.40;99.90
16384;DHT22;8301;51.440;6.610;2022-11-20T14:48:15;4.40;99.90
16384;DHT22;8301;51.440;6.610;2022-11-20T14:50:43;4.40;99.90
16384;DHT22;8301;51.440;6.610;2022-11-20T14:53:10;4.40;99.90
16384;DHT22;8301;51.440;6.610;2022-11-20T14:55:38;4.40;99.90
16384;DHT22;8301;51.440;6.610;2022-11-20T14:58:20;4.40;99.90
16384;DHT22;8301;51.440;6.610;2022-11-20T15:01:05;4.40;99.90
16384;DHT22;8301;51.440;6.610;2022-11-20T15:03:38;4.40;99.90
16384;DHT22;8301;51.440;6.610;2022-11-20T15:06:09;4.40;99.90
16384;DHT22;8301;51.440;6.610;2022-11-20T15:08:36;4.40;99.90
16384;DHT22;8301;51.440;6.610;2022-11-20T15:11:16;4.40;99.90
16384;DHT22;8301;51.440;6.610;2022-11-20T15:13:39;4.40;99.90
16384;DHT22;8301;51.440;6.610;2022-11-20T15:16:20;4.40;99.90
16384;DHT22;8301;51.440;6.610;2022-11-20T15:18:48;4.40;99.90
16384;DHT22;8301;51.440;6.610;2022-11-20T15:21:19;4.40;99.90
16384;DHT22;8301;51.440;6.610;2022-11-20T15:23:51;4.40;99.90
16384;DHT22;8301;51.440;6.610;2022-11-20T15:26:28;4.40;99.90
16384;DHT22;8301;51.440;6.610;2022-11-20T15:28:58;4.40;99.90
16384;DHT22;8301;51.440;6.610;2022-11-20T15:31:25;4.40;99.90
16384;DHT22;8301;51.440;6.610;2022-11-20T15:33:53;4.50;99.90
16384;DHT22;8301;51.440;6.610;2022-11-20T15:36:20;4.50;99.90
16384;DHT22;8301;51.440;6.610;2022-11-20T15:38:49;4.50;99.90
16384;DHT22;8301;51.440;6.610;2022-11-20T15:41:16;4.50;99.90
16384;DHT22;8301;51.440;6.610;2022-11-20T15:43:44;4.50;99.90
16384;DHT22;8301;51.440;6.610;2022-11-20T15:46:14;4.60;99.90
16384;DHT22;8301;51.440;6.610;2022-11-20T15:48:54;4.50;99.90
16384;DHT22;8301;51.440;6.610;2022-11-20T15:53:58;4.60;99.90
16384;DHT22;8301;51.440;6.610;2022-11-20T15:56:26;4.60;99.90
16384;DHT22;8301;51.440;6.610;2022-11-20T15:58:54;4.60;99.90
16384;DHT22;8301;51.440;6.610;2022-11-20T16:01:22;4.60;99.90
16384;DHT22;8301;51.440;6.610;2022-11-20T16:03:50;4.60;99.90
16384;DHT22;8301;51.440;6.610;2022-11-20T16:06:17;4.60;99.90
16384;DHT22;8301;51.440;6.610;2022-11-20T16:08:45;4.70;99.90
16384;DHT22;8301;51.440;6.610;2022-11-20T16:11:16;4.70;99.90
16384;DHT22;8301;51.440;6.610;2022-11-20T16:13:44;4.60;99.90
16384;DHT22;8301;51.440;6.610;2022-11-20T16:16:35;4.70;99.90
16384;DHT22;8301;51.440;6.610;2022-11-20T16:19:04;4.70;99.90
16384;DHT22;8301;51.440;6.610;2022-11-20T16:21:32;4.70;99.90
16384;DHT22;8301;51.440;6.610;2022-11-20T16:24:03;4.70;99.90
16384;DHT22;8301;51.440;6.610;2022-11-20T16:26:32;4.70;99.90
16384;DHT22;8301;51.440;6.610;2022-11-20T16:29:01;4.70;99.90
16384;DHT22;8301;51.440;6.610;2022-11-20T16:31:29;4.70;99.90
16384;DHT22;8301;51.440;6.610;2022-11-20T16:33:58;4.70;99.90
16384;DHT22;8301;51.440;6.610;2022-11-20T16:36:27;4.70;99.90
16384;DHT22;8301;51.440;6.610;2022-11-20T16:38:57;4.70;99.90
16384;DHT22;8301;51.440;6.610;2022-11-20T16:41:27;4.70;99.90
16384;DHT22;8301;51.440;6.610;2022-11-20T16:43:57;4.70;99.90
16384;DHT22;8301;51.440;6.610;2022-11-20T16:46:27;4.80;99.90
16384;DHT22;8301;51.440;6.610;2022-11-20T16:48:56;4.80;99.90
16384;DHT22;8301;51.440;6.610;2022-11-20T16:51:25;4.80;99.90
16384;DHT22;8301;51.440;6.610;2022-11-20T16:53:54;4.80;99.90
16384;DHT22;8301;51.440;6.610;2022-11-20T16:56:24;4.80;99.90
16384;DHT22;8301;51.440;6.610;2022-11-20T16:58:56;4.80;99.90
16384;DHT22;8301;51.440;6.610;2022-11-20T17:01:23;4.90;99.90
16384;DHT22;8301;51.440;6.610;2022-11-20T17:04:00;4.90;99.90
16384;DHT22;8301;51.440;6.610;2022-11-20T17:06:33;4.90;99.90
16384;DHT22;8301;51.440;6.610;2022-11-20T17:09:02;4.90;99.90
16384;DHT22;8301;51.440;6.610;2022-11-20T17:11:30;4.90;99.90
16384;DHT22;8301;51.440;6.610;2022-11-20T17:13:59;4.90;99.90
16384;DHT22;8301;51.440;6.610;2022-11-20T17:16:26;5.00;99.90
16384;DHT22;8301;51.440;6.610;2022-11-20T17:18:56;5.00;99.90
16384;DHT22;8301;51.440;6.610;2022-11-20T17:21:25;5.00;99.90
16384;DHT22;8301;51.440;6.610;2022-11-20T17:23:55;5.00;99.90
16384;DHT22;8301;51.440;6.610;2022-11-20T17:26:23;5.10;99.90
16384;DHT22;8301;51.440;6.610;2022-11-20T17:28:55;5.10;99.90
16384;DHT22;8301;51.440;6.610;2022-11-20T17:31:26;5.10;99.90
16384;DHT22;8301;51.440;6.610;2022-11-20T17:33:54;5.20;99.90